Time;durP1;ratioP1;P1;durP2;ratioP2;P2;SDS_P1;SDS_P2;PMS_P1;PMS_P2;Temp;Humidity;BMP_temperature;BMP_pressure;BME280_temperature;BME280_humidity;BME280_pressure;Samples;Min_cycle;Max_cycle;Signal;HPM_P1;HPM_P2
2021/04/10 00:00:20;;;;;;;0.90;0.50;;;;;;;8.44;56.14;100080.34;4863522;29;20089;-76
2021/04/10 00:02:50;;;;;;;1.95;0.60;;;;;;;8.52;55.75;100101.66;4852524;29;20044;-76
2021/04/10 00:05:18;;;;;;;2.40;0.80;;;;;;;8.50;55.65;100101.09;4851636;29;20036;-76
2021/04/10 00:07:44;;;;;;;0.60;0.50;;;;;;;8.49;56.40;100110.34;4856978;29;20041;-76
2021/04/10 00:10:11;;;;;;;1.92;0.60;;;;;;;8.43;56.47;100089.56;4857480;29;20049;-76
2021/04/10 00:12:46;;;;;;;1.38;0.60;;;;;;;8.48;56.37;100102.44;4866879;29;20026;-74
2021/04/10 00:15:19;;;;;;;1.08;0.90;;;;;;;8.37;56.11;100090.59;4851290;29;20037;-77
2021/04/10 00:17:47;;;;;;;1.27;0.70;;;;;;;8.39;57.32;100093.88;4866359;29;20042;-77
2021/04/10 00:20:16;;;;;;;1.17;0.80;;;;;;;8.32;56.63;100082.38;4865349;29;20026;-73
2021/04/10 00:22:44;;;;;;;1.08;0.95;;;;;;;8.35;57.32;100090.03;4867194;29;20045;-76
2021/04/10 00:25:11;;;;;;;0.50;0.50;;;;;;;8.36;56.97;100092.50;4868353;29;20036;-77
2021/04/10 00:27:37;;;;;;;1.20;1.10;;;;;;;8.35;57.62;100088.13;4869091;29;20037;-75
2021/04/10 00:30:08;;;;;;;2.13;0.95;;;;;;;8.39;57.55;100094.69;4847252;29;20037;-77
2021/04/10 00:32:37;;;;;;;2.25;0.77;;;;;;;8.46;57.84;100099.97;4852158;29;20030;-76
2021/04/10 00:35:03;;;;;;;1.40;0.80;;;;;;;8.40;57.84;100087.34;4842674;29;20033;-76
2021/04/10 00:37:31;;;;;;;1.05;0.73;;;;;;;8.43;57.56;100089.56;4863611;29;20037;-76
2021/04/10 00:39:56;;;;;;;0.60;0.60;;;;;;;8.43;57.49;100086.84;4850441;29;20053;-75
2021/04/10 00:42:25;;;;;;;0.80;0.80;;;;;;;8.40;57.26;100084.63;4849040;29;20026;-75
2021/04/10 00:44:55;;;;;;;3.80;1.42;;;;;;;8.39;57.43;100082.97;4855158;29;20045;-76
2021/04/10 00:47:28;;;;;;;0.60;0.60;;;;;;;8.39;57.89;100088.44;4848116;29;20044;-77
2021/04/10 00:49:53;;;;;;;5.07;1.20;;;;;;;8.43;57.45;100095.00;4852571;29;20037;-77
2021/04/10 00:52:19;;;;;;;0.68;0.55;;;;;;;8.36;57.81;100088.94;4832741;29;20038;-74
2021/04/10 00:54:50;;;;;;;1.00;0.90;;;;;;;8.39;58.17;100082.97;4845269;29;20042;-76
2021/04/10 00:57:24;;;;;;;2.28;0.80;;;;;;;8.36;58.47;100086.22;4856753;29;20033;-76
2021/04/10 01:00:00;;;;;;;;;;;;;;;;;;;;;
2021/04/10 01:02:27;;;;;;;2.38;0.77;;;;;;;8.36;58.43;100091.69;4866324;29;20100;-75
2021/04/10 01:04:53;;;;;;;1.63;1.25;;;;;;;8.41;58.63;100099.91;4856584;29;20033;-75
2021/04/10 01:07:19;;;;;;;1.35;0.95;;;;;;;8.30;58.92;100079.09;4855238;29;20473;-76
2021/04/10 01:09:54;;;;;;;1.40;1.05;;;;;;;8.36;58.32;100083.50;4867983;29;20116;-77
2021/04/10 01:12:38;;;;;;;0.80;0.80;;;;;;;8.45;58.39;100095.59;4873122;29;20033;-76
2021/04/10 01:15:26;;;;;;;1.05;0.90;;;;;;;8.35;58.19;100087.28;4858711;29;20029;-75
2021/04/10 01:18:12;;;;;;;0.47;0.47;;;;;;;8.46;58.92;100099.97;4859116;29;20029;-78
2021/04/10 01:21:05;;;;;;;3.25;1.13;;;;;;;8.47;57.99;100096.16;4864409;29;20042;-76
2021/04/10 01:23:52;;;;;;;2.15;0.93;;;;;;;8.47;58.13;100089.88;4858319;29;20065;-78
2021/04/10 01:27:03;;;;;;;1.05;0.95;;;;;;;8.46;58.78;100089.06;4873142;29;20033;-77
2021/04/10 01:29:32;;;;;;;1.38;0.93;;;;;;;8.45;59.05;100087.41;4872306;29;20120;-77
2021/04/10 01:32:18;;;;;;;1.30;0.95;;;;;;;8.38;57.69;100075.88;4878455;29;20087;-76
2021/04/10 01:34:53;;;;;;;2.78;1.10;;;;;;;8.43;57.72;100081.38;4873279;29;20053;-75
2021/04/10 01:37:28;;;;;;;1.13;1.02;;;;;;;8.42;58.33;100077.00;4876577;29;20029;-76
2021/04/10 01:39:54;;;;;;;6.50;1.10;;;;;;;8.39;57.65;100080.25;4873825;29;20061;-75
2021/04/10 01:42:24;;;;;;;1.00;0.90;;;;;;;8.33;57.97;100078.56;4855655;29;20048;-77
2021/04/10 01:44:56;;;;;;;1.00;1.00;;;;;;;8.31;57.30;100072.53;4836215;29;20142;-74
2021/04/10 01:47:21;;;;;;;1.02;0.93;;;;;;;8.22;57.94;100066.78;4843519;29;20025;-76
2021/04/10 01:49:50;;;;;;;1.63;1.27;;;;;;;8.21;57.68;100065.94;4864633;29;20553;-76
2021/04/10 01:52:22;;;;;;;1.50;0.90;;;;;;;8.20;57.16;100064.28;4861855;29;20025;-76
2021/04/10 01:54:47;;;;;;;1.75;0.98;;;;;;;8.18;57.56;100063.75;4863196;29;20040;-75
2021/04/10 01:57:17;;;;;;;0.85;0.70;;;;;;;8.18;57.33;100077.34;4856510;29;20034;-75
2021/04/10 01:59:44;;;;;;;0.80;0.80;;;;;;;8.13;57.07;100071.03;4864359;29;20037;-75
2021/04/10 02:02:14;;;;;;;2.13;0.68;;;;;;;8.08;57.49;100069.09;4862830;29;20021;-75
2021/04/10 02:04:44;;;;;;;0.63;0.63;;;;;;;8.04;56.72;100073.41;4865365;29;20030;-74
2021/04/10 02:07:11;;;;;;;2.97;0.80;;;;;;;7.99;56.56;100057.03;4866309;29;20049;-73
2021/04/10 02:09:40;;;;;;;1.20;1.10;;;;;;;7.99;57.11;100054.31;4858355;29;20028;-74
2021/04/10 02:12:06;;;;;;;1.38;1.25;;;;;;;7.95;56.45;100050.44;4861780;29;20040;-74
2021/04/10 02:14:35;;;;;;;0.82;0.70;;;;;;;8.01;56.83;100061.13;4865456;29;20057;-74
2021/04/10 02:17:03;;;;;;;1.15;0.55;;;;;;;7.99;56.80;100067.94;4865515;29;20060;-73
2021/04/10 02:19:29;;;;;;;1.75;0.90;;;;;;;7.97;55.83;100061.91;4836729;29;20037;-74
2021/04/10 02:21:57;;;;;;;0.60;0.60;;;;;;;7.95;55.97;100066.78;4848969;29;20048;-73
2021/04/10 02:24:22;;;;;;;1.58;1.05;;;;;;;7.91;55.54;100071.09;4859575;29;20033;-74
2021/04/10 02:26:48;;;;;;;1.58;0.60;;;;;;;7.89;56.58;100062.38;4844456;29;20814;-72
2021/04/10 02:29:13;;;;;;;1.40;0.98;;;;;;;7.83;55.76;100056.88;4863468;29;20033;-73
2021/04/10 02:31:50;;;;;;;0.82;0.60;;;;;;;7.80;56.01;100065.56;4863286;29;20033;-73
2021/04/10 02:34:21;;;;;;;0.60;0.50;;;;;;;7.74;55.86;100063.88;4849442;29;20072;-74
2021/04/10 02:36:53;;;;;;;1.67;0.70;;;;;;;7.68;55.49;100052.09;4846375;29;20084;-75
2021/04/10 02:39:19;;;;;;;2.42;1.10;;;;;;;7.70;55.91;100060.00;4847493;29;20022;-73
2021/04/10 02:41:49;;;;;;;1.42;0.90;;;;;;;7.63;55.77;100040.34;4860421;29;20047;-71
2021/04/10 02:44:18;;;;;;;3.33;1.38;;;;;;;7.66;54.93;100045.25;4862413;29;20109;-74
2021/04/10 02:46:49;;;;;;;2.58;1.05;;;;;;;7.58;54.88;100045.69;4861935;29;20034;-73
2021/04/10 02:49:27;;;;;;;3.30;0.80;;;;;;;7.53;54.70;100038.31;4849227;29;20026;-72
2021/04/10 02:51:59;;;;;;;2.05;1.00;;;;;;;7.53;55.23;100048.38;4869083;29;20043;-73
2021/04/10 02:54:29;;;;;;;0.77;0.70;;;;;;;7.47;55.04;100045.59;4851044;29;20094;-77
2021/04/10 02:57:16;;;;;;;0.55;0.52;;;;;;;7.29;54.82;100018.75;4858011;29;20053;-72
2021/04/10 02:59:45;;;;;;;2.38;0.73;;;;;;;7.40;54.44;100039.53;4849821;29;20037;-72
2021/04/10 03:02:12;;;;;;;0.70;0.70;;;;;;;7.29;54.92;100027.72;4857120;29;20102;-72
2021/04/10 03:04:40;;;;;;;1.13;0.70;;;;;;;7.34;54.99;100035.09;4863405;29;20032;-74
2021/04/10 03:07:08;;;;;;;2.47;0.63;;;;;;;7.31;54.38;100035.63;4826006;29;20038;-73
2021/04/10 03:09:36;;;;;;;0.95;0.82;;;;;;;7.27;54.66;100039.91;4861450;29;20025;-73
2021/04/10 03:12:02;;;;;;;5.40;0.80;;;;;;;7.25;54.59;100036.63;4852753;29;20037;-73
2021/04/10 03:14:28;;;;;;;0.40;0.40;;;;;;;7.21;55.04;100030.06;4857797;29;20181;-74
2021/04/10 03:16:55;;;;;;;0.82;0.40;;;;;;;7.20;54.63;100021.09;4856495;29;20065;-74
2021/04/10 03:19:23;;;;;;;1.15;0.65;;;;;;;7.14;55.07;100020.19;4857138;29;20033;-74
2021/04/10 03:21:49;;;;;;;0.95;0.82;;;;;;;7.11;54.69;100023.41;4860191;29;20538;-73
2021/04/10 03:24:15;;;;;;;0.75;0.63;;;;;;;7.14;54.63;100031.06;4828841;29;20029;-76
2021/04/10 03:26:42;;;;;;;0.68;0.60;;;;;;;7.02;55.04;100011.31;4859775;29;20041;-73
2021/04/10 03:29:08;;;;;;;1.55;0.77;;;;;;;7.05;54.96;100018.97;4857142;29;20430;-75
2021/04/10 03:31:34;;;;;;;1.20;0.63;;;;;;;7.01;54.42;100009.69;4838253;29;20037;-74
2021/04/10 03:33:59;;;;;;;0.32;0.32;;;;;;;7.02;54.84;100022.19;4852036;29;20114;-76
2021/04/10 03:36:26;;;;;;;3.25;0.65;;;;;;;6.99;55.00;100017.28;4844772;29;20034;-75
2021/04/10 03:38:55;;;;;;;0.47;0.40;;;;;;;7.02;54.47;100022.19;4828512;29;20034;-75
2021/04/10 03:41:25;;;;;;;1.80;0.43;;;;;;;6.90;54.84;100007.91;4863440;29;20191;-74
2021/04/10 03:43:51;;;;;;;0.60;0.50;;;;;;;6.91;54.49;100006.84;4851944;29;20500;-73
2021/04/10 03:46:16;;;;;;;0.40;0.32;;;;;;;6.84;54.25;99998.06;4851393;29;20061;-75
2021/04/10 03:48:42;;;;;;;0.55;0.30;;;;;;;6.94;54.39;100019.94;4860349;29;20054;-74
2021/04/10 03:51:07;;;;;;;0.40;0.40;;;;;;;6.84;54.60;100000.78;4865602;29;20053;-74
2021/04/10 03:53:33;;;;;;;1.23;0.60;;;;;;;6.79;54.65;99996.06;4859332;29;20098;-75
2021/04/10 03:55:58;;;;;;;1.50;0.70;;;;;;;6.74;54.71;99999.53;4852331;29;20041;-74
2021/04/10 03:58:26;;;;;;;1.50;0.47;;;;;;;6.82;54.84;100006.47;4867013;29;20034;-75
2021/04/10 04:00:51;;;;;;;0.40;0.40;;;;;;;6.81;54.77;100015.69;4855300;29;20049;-75
2021/04/10 04:03:17;;;;;;;0.57;0.50;;;;;;;6.85;54.82;100026.88;4864375;29;20038;-71
2021/04/10 04:05:42;;;;;;;0.30;0.30;;;;;;;6.85;54.68;100026.88;4863188;29;20034;-73
2021/04/10 04:08:11;;;;;;;0.90;0.60;;;;;;;6.74;55.10;100015.84;4859572;29;20036;-76
2021/04/10 04:10:36;;;;;;;0.50;0.50;;;;;;;6.76;54.83;100019.16;4843548;29;20022;-73
2021/04/10 04:13:02;;;;;;;0.40;0.40;;;;;;;6.82;54.84;100031.75;4849347;29;20544;-73
2021/04/10 04:15:27;;;;;;;0.60;0.50;;;;;;;6.84;54.61;100036.09;4859745;29;20541;-74
2021/04/10 04:17:53;;;;;;;0.50;0.45;;;;;;;6.79;54.17;100026.81;4859805;29;20503;-75
2021/04/10 04:20:18;;;;;;;0.95;0.77;;;;;;;6.74;54.56;100010.41;4836031;29;20062;-76
2021/04/10 04:22:44;;;;;;;0.50;0.50;;;;;;;6.81;54.54;100024.66;4874230;29;20036;-76
2021/04/10 04:25:10;;;;;;;1.10;1.00;;;;;;;6.82;54.43;100033.66;4874774;29;20037;-75
2021/04/10 04:27:38;;;;;;;0.70;0.50;;;;;;;6.76;54.52;100023.75;4867969;29;20029;-74
2021/04/10 04:30:13;;;;;;;1.02;0.93;;;;;;;6.78;54.64;100029.78;4865645;29;20132;-75
2021/04/10 04:32:38;;;;;;;2.00;0.93;;;;;;;6.79;54.26;100040.41;4871058;29;20121;-77
2021/04/10 04:35:04;;;;;;;0.50;0.50;;;;;;;6.76;54.82;100035.47;4844789;29;20041;-77
2021/04/10 04:37:29;;;;;;;0.90;0.60;;;;;;;6.75;54.84;100033.00;4851545;29;20066;-78
2021/04/10 04:39:55;;;;;;;1.73;0.80;;;;;;;6.84;54.28;100036.91;4841000;29;20496;-74
2021/04/10 04:42:20;;;;;;;1.27;0.77;;;;;;;6.78;54.58;100027.06;4868662;29;20042;-74
2021/04/10 04:44:46;;;;;;;4.68;0.52;;;;;;;6.76;54.50;100035.47;4868944;29;20043;-74
2021/04/10 04:47:11;;;;;;;0.73;0.60;;;;;;;6.86;54.35;100047.53;4845816;29;20539;-77
2021/04/10 04:49:37;;;;;;;0.80;0.68;;;;;;;6.87;54.35;100051.91;4869206;29;20473;-74
2021/04/10 04:52:03;;;;;;;2.15;0.30;;;;;;;6.87;54.33;100051.91;4859463;29;20022;-71
2021/04/10 04:54:32;;;;;;;1.38;0.98;;;;;;;6.86;54.67;100050.25;4860878;29;20037;-75
2021/04/10 04:56:59;;;;;;;0.57;0.57;;;;;;;6.86;54.77;100044.81;4871856;29;20094;-75
2021/04/10 04:59:29;;;;;;;0.65;0.40;;;;;;;6.82;54.25;100034.47;4865437;29;20030;-74
2021/04/10 05:01:55;;;;;;;0.70;0.70;;;;;;;6.90;54.14;100040.53;4859968;29;20037;-74
2021/04/10 05:04:20;;;;;;;0.90;0.75;;;;;;;6.97;54.49;100046.63;4858699;29;20029;-74
2021/04/10 05:06:46;;;;;;;0.60;0.32;;;;;;;6.87;54.58;100030.97;4848926;29;20077;-75
2021/04/10 05:09:11;;;;;;;0.57;0.50;;;;;;;6.92;54.52;100043.81;4859502;29;20073;-74
2021/04/10 05:11:36;;;;;;;0.98;0.50;;;;;;;6.91;54.45;100037.56;4849876;29;20532;-74
2021/04/10 05:14:02;;;;;;;0.47;0.40;;;;;;;6.93;54.53;100045.47;4849519;29;20525;-73
2021/04/10 05:16:32;;;;;;;0.68;0.20;;;;;;;6.92;54.68;100041.09;4854566;29;20121;-74
2021/04/10 05:19:05;;;;;;;0.82;0.40;;;;;;;6.98;54.87;100048.28;4850297;29;20084;-76
2021/04/10 05:21:30;;;;;;;0.57;0.38;;;;;;;6.91;54.32;100036.75;4841625;29;20104;-75
2021/04/10 05:23:58;;;;;;;0.47;0.40;;;;;;;6.97;54.75;100042.00;4852836;29;20030;-75
2021/04/10 05:26:23;;;;;;;2.08;0.90;;;;;;;6.84;54.33;100019.81;4859144;29;20120;-74
2021/04/10 05:28:49;;;;;;;0.90;0.73;;;;;;;6.93;54.70;100037.31;4863689;29;20109;-75
2021/04/10 05:31:14;;;;;;;1.38;1.00;;;;;;;6.89;54.16;100038.88;4861765;29;20053;-73
2021/04/10 05:33:43;;;;;;;1.13;0.40;;;;;;;6.96;54.51;100044.97;4847511;29;20061;-74
2021/04/10 05:36:11;;;;;;;1.58;0.60;;;;;;;6.88;55.12;100038.06;4825710;29;20038;-75
2021/04/10 05:38:37;;;;;;;0.73;0.60;;;;;;;6.85;54.81;100037.72;4854544;29;20029;-74
2021/04/10 05:41:02;;;;;;;0.50;0.40;;;;;;;6.92;54.91;100054.69;4863535;29;20036;-75
2021/04/10 05:43:28;;;;;;;1.38;0.60;;;;;;;6.91;55.09;100055.78;4843593;29;20499;-73
2021/04/10 05:45:54;;;;;;;0.25;0.25;;;;;;;6.91;55.14;100059.31;4849210;29;20029;-74
2021/04/10 05:48:19;;;;;;;0.57;0.30;;;;;;;6.93;54.76;100048.19;4843621;29;20421;-74
2021/04/10 05:50:45;;;;;;;0.55;0.40;;;;;;;6.96;55.26;100058.56;4856624;29;20026;-76
2021/04/10 05:53:11;;;;;;;0.30;0.30;;;;;;;6.86;55.04;100044.81;4856913;29;20033;-76
2021/04/10 05:55:45;;;;;;;0.85;0.47;;;;;;;6.85;55.09;100040.44;4848557;29;20484;-77
2021/04/10 05:58:10;;;;;;;0.40;0.40;;;;;;;6.93;55.10;100053.63;4859245;29;20034;-74
2021/04/10 06:00:36;;;;;;;1.38;0.63;;;;;;;6.91;55.52;100044.91;4841461;29;20046;-75
2021/04/10 06:03:04;;;;;;;0.57;0.57;;;;;;;6.93;55.44;100053.63;4826934;29;20029;-75
2021/04/10 06:05:30;;;;;;;0.52;0.38;;;;;;;7.04;55.19;100052.69;4851825;29;20057;-75
2021/04/10 06:08:03;;;;;;;0.30;0.30;;;;;;;7.04;55.29;100046.41;4856401;29;20476;-74
2021/04/10 06:10:31;;;;;;;0.60;0.60;;;;;;;7.10;55.60;100056.31;4841456;29;20036;-74
2021/04/10 06:13:08;;;;;;;1.88;0.50;;;;;;;7.09;55.46;100060.91;4866426;29;20401;-75
2021/04/10 06:15:36;;;;;;;0.70;0.70;;;;;;;7.11;55.35;100053.34;4847967;29;20456;-76
2021/04/10 06:18:05;;;;;;;1.27;0.80;;;;;;;7.12;55.45;100048.72;4838395;29;20037;-75
2021/04/10 06:20:30;;;;;;;1.55;0.82;;;;;;;7.14;55.36;100049.25;4853288;29;20363;-75
2021/04/10 06:22:56;;;;;;;1.05;1.00;;;;;;;7.09;55.20;100033.72;4853457;29;20066;-73
2021/04/10 06:25:21;;;;;;;0.52;0.52;;;;;;;7.14;56.03;100043.81;4858863;29;20069;-73
2021/04/10 06:27:47;;;;;;;1.48;1.23;;;;;;;7.23;55.25;100052.38;4857196;29;20038;-73
2021/04/10 06:30:16;;;;;;;2.13;0.90;;;;;;;7.25;55.28;100055.69;4849308;29;20090;-75
2021/04/10 06:32:41;;;;;;;2.40;0.90;;;;;;;7.20;55.84;100064.59;4854557;29;20121;-73
2021/04/10 06:35:07;;;;;;;4.43;1.63;;;;;;;7.25;55.89;100063.84;4856316;29;20113;-75
2021/04/10 06:37:35;;;;;;;3.05;1.00;;;;;;;7.26;55.82;100062.75;4857266;29;20108;-74
2021/04/10 06:40:00;;;;;;;1.27;1.17;;;;;;;7.19;56.22;100045.81;4854079;29;20515;-76
2021/04/10 06:42:35;;;;;;;1.20;1.10;;;;;;;7.27;56.07;100050.78;4840607;29;20034;-74
2021/04/10 06:45:01;;;;;;;3.28;1.73;;;;;;;7.26;55.60;100043.72;4860505;29;20026;-76
2021/04/10 06:47:30;;;;;;;3.63;1.10;;;;;;;7.36;55.82;100053.88;4862961;29;20101;-73
2021/04/10 06:49:58;;;;;;;2.22;1.27;;;;;;;7.46;56.34;100054.84;4855575;29;20030;-75
2021/04/10 06:52:26;;;;;;;3.20;1.35;;;;;;;7.47;56.02;100045.59;4834878;29;20032;-73
2021/04/10 06:54:57;;;;;;;1.77;1.40;;;;;;;7.55;55.54;100051.66;4836449;29;20498;-74
2021/04/10 06:57:27;;;;;;;1.58;1.48;;;;;;;7.62;56.30;100063.16;4860451;29;20483;-75
2021/04/10 07:00:01;;;;;;;1.08;0.98;;;;;;;7.62;56.07;100057.72;4856939;29;20037;-74
2021/04/10 07:02:52;;;;;;;;;;;;;;;;;;;;;
2021/04/10 07:05:20;;;;;;;2.83;1.63;;;;;;;7.66;56.25;100056.16;4849887;29;20098;-73
2021/04/10 07:07:47;;;;;;;1.35;1.25;;;;;;;7.80;55.37;100076.44;4863583;29;20039;-72
2021/04/10 07:10:16;;;;;;;1.52;1.38;;;;;;;7.75;56.26;100046.44;4859968;29;20087;-73
2021/04/10 07:12:52;;;;;;;;;;;;;;;;;;;;;
2021/04/10 07:15:30;;;;;;;;;;;;;;;;;;;;;
2021/04/10 07:17:57;;;;;;;2.42;1.85;;;;;;;7.96;55.72;100071.16;4865727;29;20081;-75
2021/04/10 07:20:26;;;;;;;4.55;1.88;;;;;;;8.02;55.37;100075.56;4841109;29;20089;-75
2021/04/10 07:23:00;;;;;;;1.88;1.77;;;;;;;7.98;55.32;100056.19;4865749;29;20030;-75
2021/04/10 07:25:31;;;;;;;2.00;1.90;;;;;;;8.04;54.90;100062.50;4854147;29;20040;-75
2021/04/10 07:28:33;;;;;;;3.05;1.92;;;;;;;8.19;55.71;100064.53;4846781;29;20030;-75
2021/04/10 07:31:07;;;;;;;2.38;1.63;;;;;;;8.20;55.78;100060.75;4870609;29;20028;-74
2021/04/10 07:33:38;;;;;;;3.00;2.35;;;;;;;8.19;55.78;100062.66;4853262;29;20054;-74
2021/04/10 07:36:15;;;;;;;2.65;2.30;;;;;;;8.33;55.11;100073.13;4875205;29;20442;-74
2021/04/10 07:38:52;;;;;;;2.20;2.00;;;;;;;8.34;54.98;100063.88;4851139;29;20743;-74
2021/04/10 07:41:21;;;;;;;2.55;2.35;;;;;;;8.39;55.49;100051.09;4834390;29;20133;-75
2021/04/10 07:43:54;;;;;;;2.83;2.63;;;;;;;8.42;54.30;100044.31;4866626;29;20040;-76
2021/04/10 07:46:25;;;;;;;2.60;2.40;;;;;;;8.54;54.55;100053.16;4864634;29;20502;-73
2021/04/10 07:49:01;;;;;;;3.60;2.80;;;;;;;8.68;54.87;100064.41;4854166;29;20044;-74
2021/04/10 07:51:37;;;;;;;2.95;2.63;;;;;;;8.68;54.23;100060.88;4863316;29;20388;-73
2021/04/10 07:54:52;;;;;;;3.78;2.53;;;;;;;8.75;55.10;100061.47;4871892;29;20029;-76
2021/04/10 07:57:23;;;;;;;2.72;2.53;;;;;;;8.68;54.54;100055.44;4868761;29;20045;-74
2021/04/10 07:59:48;;;;;;;2.72;2.53;;;;;;;8.75;54.61;100072.38;4872723;29;20037;-74
2021/04/10 08:02:18;;;;;;;3.08;2.88;;;;;;;8.71;55.23;100068.53;4866005;29;20026;-75
2021/04/10 08:05:07;;;;;;;3.10;2.90;;;;;;;8.73;55.04;100074.53;4858452;29;20414;-74
2021/04/10 08:07:37;;;;;;;3.42;3.22;;;;;;;8.70;55.36;100072.34;4850785;29;20045;-75
2021/04/10 08:10:08;;;;;;;2.90;2.70;;;;;;;8.65;55.67;100055.97;4866850;29;20029;-76
2021/04/10 08:12:38;;;;;;;3.10;2.90;;;;;;;8.79;55.86;100069.94;4851020;29;20025;-75
2021/04/10 08:15:12;;;;;;;2.35;2.25;;;;;;;8.83;55.42;100071.06;4868055;29;20178;-77
2021/04/10 08:18:00;;;;;;;2.90;2.80;;;;;;;8.85;54.98;100068.91;4869901;29;20127;-75
2021/04/10 08:20:30;;;;;;;5.80;3.65;;;;;;;8.90;55.11;100066.19;4861958;29;20041;-75
2021/04/10 08:23:22;;;;;;;3.67;3.40;;;;;;;8.96;55.57;100069.78;4863755;29;20058;-75
2021/04/10 08:25:50;;;;;;;3.58;3.35;;;;;;;8.85;56.10;100061.53;4865118;29;20057;-74
2021/04/10 08:28:16;;;;;;;3.53;3.13;;;;;;;8.80;55.69;100064.22;4866330;29;20122;-76
2021/04/10 08:30:43;;;;;;;4.10;3.10;;;;;;;8.72;55.52;100048.38;4852388;29;20033;-76
2021/04/10 08:33:19;;;;;;;4.20;3.38;;;;;;;8.73;56.43;100059.03;4866111;29;20050;-72
2021/04/10 08:35:46;;;;;;;3.13;2.88;;;;;;;8.88;57.00;100068.38;4877941;29;20096;-72
2021/04/10 08:38:12;;;;;;;3.88;3.58;;;;;;;8.86;55.94;100065.09;4858834;29;20037;-75
2021/04/10 08:40:43;;;;;;;4.03;3.65;;;;;;;9.04;56.42;100077.47;4830922;29;20057;-73
2021/04/10 08:43:17;;;;;;;4.43;3.95;;;;;;;9.02;56.54;100055.09;4850828;29;20029;-74
2021/04/10 08:45:52;;;;;;;4.10;3.50;;;;;;;9.09;56.34;100061.94;4874792;29;20043;-75
2021/04/10 08:48:22;;;;;;;3.42;3.20;;;;;;;9.22;56.79;100079.72;4859518;29;20546;-76
2021/04/10 08:51:14;;;;;;;4.10;3.83;;;;;;;9.19;56.34;100069.34;4861547;29;20033;-75
2021/04/10 08:53:46;;;;;;;3.72;3.53;;;;;;;9.29;55.99;100084.13;4863131;29;20046;-77
2021/04/10 08:56:17;;;;;;;4.55;3.97;;;;;;;9.33;55.93;100087.97;4859812;29;20088;-74
2021/04/10 08:58:56;;;;;;;;;;;;;;;;;;;;;
2021/04/10 09:01:35;;;;;;;;;;;;;;;;;;;;;
2021/04/10 09:04:17;;;;;;;;;;;;;;;;;;;;;
2021/04/10 09:06:48;;;;;;;4.28;4.03;;;;;;;9.50;56.58;100064.03;4853514;29;20120;-75
2021/04/10 09:09:29;;;;;;;;;;;;;;;;;;;;;
2021/04/10 09:12:53;;;;;;;3.97;3.63;;;;;;;9.83;56.00;100088.41;4863762;29;20211;-75
2021/04/10 09:15:25;;;;;;;7.00;4.32;;;;;;;9.71;56.21;100058.63;4841933;29;20041;-78
2021/04/10 09:18:05;;;;;;;4.40;4.00;;;;;;;9.84;56.06;100074.53;4859476;29;20288;-75
2021/04/10 09:20:43;;;;;;;6.00;4.55;;;;;;;10.06;55.88;100087.94;4851926;29;20025;-76
2021/04/10 09:23:33;;;;;;;10.98;3.55;;;;;;;10.14;55.78;100083.84;4860211;29;20037;-76
2021/04/10 09:26:10;;;;;;;4.03;3.30;;;;;;;10.17;55.48;100069.63;4860505;29;20112;-73
2021/04/10 09:29:01;;;;;;;3.30;2.72;;;;;;;10.28;55.64;100073.22;4858153;29;20446;-73
2021/04/10 09:31:51;;;;;;;3.30;3.08;;;;;;;10.34;55.91;100077.59;4855648;29;20030;-72
2021/04/10 09:34:52;;;;;;;4.20;2.80;;;;;;;10.47;55.25;100082.53;4856937;29;20038;-73
2021/04/10 09:37:20;;;;;;;3.08;2.53;;;;;;;10.46;55.48;100085.53;4857599;29;20049;-73
2021/04/10 09:40:12;;;;;;;3.55;2.10;;;;;;;10.52;54.73;100078.16;4850084;29;20034;-71
2021/04/10 09:42:46;;;;;;;2.95;2.00;;;;;;;10.60;54.43;100081.16;4828678;29;20037;-72
2021/04/10 09:45:17;;;;;;;2.67;2.50;;;;;;;10.70;54.78;100079.50;4859491;29;20595;-75
2021/04/10 09:47:54;;;;;;;2.58;2.33;;;;;;;10.72;53.98;100069.09;4856345;29;20029;-75
2021/04/10 09:50:25;;;;;;;2.05;1.95;;;;;;;10.78;54.31;100081.69;4858754;29;20033;-75
2021/04/10 09:53:02;;;;;;;7.15;2.97;;;;;;;10.78;54.35;100082.50;4847633;29;20089;-75
2021/04/10 09:55:40;;;;;;;;;;;;;;;;;;;;;
2021/04/10 09:58:30;;;;;;;3.33;3.08;;;;;;;10.76;54.53;100067.44;4860499;29;20163;-75
2021/04/10 10:01:23;;;;;;;4.13;2.75;;;;;;;11.03;54.26;100078.06;4862604;29;20029;-75
2021/04/10 10:03:50;;;;;;;6.57;3.10;;;;;;;11.10;53.45;100069.59;4867287;29;20029;-76
2021/04/10 10:06:34;;;;;;;;;;;;;;;;;;;;;
2021/04/10 10:09:20;;;;;;;4.38;3.00;;;;;;;11.61;53.24;100063.91;4864729;29;20085;-74
2021/04/10 10:11:51;;;;;;;4.90;2.80;;;;;;;11.85;52.84;100060.47;4863601;29;20058;-76
2021/04/10 10:14:43;;;;;;;3.97;3.70;;;;;;;11.93;51.69;100046.22;4855898;29;20046;-79
2021/04/10 10:20:16;;;;;;;5.32;3.92;;;;;;;12.88;50.16;100055.00;4863533;29;20045;-79
2021/04/10 10:22:54;;;;;;;8.05;3.95;;;;;;;13.25;50.01;100048.00;4864291;29;20045;-75
2021/04/10 10:25:24;;;;;;;4.60;4.07;;;;;;;13.68;48.37;100063.69;4848713;29;20130;-76
2021/04/10 10:27:49;;;;;;;3.30;3.08;;;;;;;13.83;47.95;100045.34;4842927;29;20044;-74
2021/04/10 10:30:35;;;;;;;;;;;;;;;;;;;;;
2021/04/10 10:33:15;;;;;;;;;;;;;;;;;;;;;
2021/04/10 10:35:53;;;;;;;3.55;2.55;;;;;;;14.31;46.32;100048.72;4857584;29;20116;-75
2021/04/10 10:38:19;;;;;;;3.05;2.72;;;;;;;14.28;46.02;100059.50;4858893;29;20041;-73
2021/04/10 10:40:49;;;;;;;4.40;2.58;;;;;;;14.31;45.41;100067.19;4851316;29;20495;-72
2021/04/10 10:43:19;;;;;;;2.70;2.50;;;;;;;14.26;45.31;100067.25;4852876;29;20037;-74
2021/04/10 10:45:50;;;;;;;3.25;2.95;;;;;;;14.18;45.22;100073.41;4857071;29;20049;-77
2021/04/10 10:48:20;;;;;;;6.63;3.10;;;;;;;14.08;45.31;100069.72;4871195;29;20030;-77
2021/04/10 10:51:13;;;;;;;2.92;2.67;;;;;;;13.91;45.80;100066.66;4874446;29;20025;-78
2021/04/10 10:53:40;;;;;;;4.68;2.75;;;;;;;13.91;45.56;100072.16;4842765;29;20042;-75
2021/04/10 10:56:36;;;;;;;;;;;;;;;;;;;;;
2021/04/10 10:59:06;;;;;;;2.15;2.00;;;;;;;13.71;45.54;100035.63;4865962;29;20536;-77
2021/04/10 11:01:42;;;;;;;2.63;2.53;;;;;;;13.82;45.30;100069.25;4870411;29;20452;-80
2021/04/10 11:04:35;;;;;;;;;;;;;;;;;;;;;
2021/04/10 11:07:03;;;;;;;7.78;2.30;;;;;;;13.93;45.46;100061.69;4859411;29;20112;-78
2021/04/10 11:09:34;;;;;;;2.42;1.95;;;;;;;13.91;44.95;100058.44;4859923;29;20109;-78
2021/04/10 11:12:14;;;;;;;2.45;2.25;;;;;;;13.97;44.87;100051.72;4855781;29;20029;-76
2021/04/10 11:14:43;;;;;;;1.77;1.67;;;;;;;14.05;45.12;100053.81;4860428;29;20072;-80
2021/04/10 11:17:11;;;;;;;5.20;1.73;;;;;;;14.28;45.06;100045.75;4855155;29;20064;-77
2021/04/10 11:19:39;;;;;;;2.15;2.05;;;;;;;14.75;45.22;100065.91;4847011;29;20021;-77
2021/04/10 11:22:08;;;;;;;2.70;2.17;;;;;;;15.06;44.31;100059.81;4851368;29;20033;-76
2021/04/10 11:24:43;;;;;;;2.00;1.90;;;;;;;15.26;43.56;100055.00;4869561;29;20054;-78
2021/04/10 11:27:26;;;;;;;2.40;2.00;;;;;;;15.26;43.22;100052.25;4855190;29;20149;-78
2021/04/10 11:30:06;;;;;;;5.07;2.15;;;;;;;15.23;42.66;100058.38;4863327;29;20055;-78
2021/04/10 11:32:45;;;;;;;1.92;1.70;;;;;;;15.17;42.64;100054.91;4845271;29;20067;-77
2021/04/10 11:35:14;;;;;;;4.13;2.50;;;;;;;15.01;42.87;100051.66;4848151;29;20038;-76
2021/04/10 11:37:42;;;;;;;3.25;2.00;;;;;;;14.77;43.29;100058.13;4851693;29;20058;-77
2021/04/10 11:40:10;;;;;;;3.67;1.88;;;;;;;14.65;43.18;100060.56;4858598;29;20113;-76
2021/04/10 11:42:39;;;;;;;3.05;2.10;;;;;;;14.58;43.71;100060.13;4837017;29;20036;-75
2021/04/10 11:45:12;;;;;;;2.72;1.90;;;;;;;14.49;43.24;100051.75;4847432;29;20118;-74
2021/04/10 11:47:43;;;;;;;2.15;1.58;;;;;;;14.41;43.28;100057.91;4850634;29;20032;-76
2021/04/10 11:50:17;;;;;;;3.70;1.92;;;;;;;14.26;43.57;100043.28;4856660;29;20468;-77
2021/04/10 11:52:44;;;;;;;2.00;1.52;;;;;;;14.29;44.08;100048.22;4855704;29;20069;-75
2021/04/10 11:55:19;;;;;;;1.85;1.75;;;;;;;14.28;43.51;100045.75;4850797;29;20461;-74
2021/04/10 11:58:10;;;;;;;1.98;1.77;;;;;;;14.30;43.64;100049.03;4864409;29;20108;-77
2021/04/10 12:00:39;;;;;;;3.17;1.95;;;;;;;14.12;44.19;100051.50;4845080;29;20038;-79
2021/04/10 12:03:27;;;;;;;;;;;;;;;;;;;;;
2021/04/10 12:06:00;;;;;;;1.90;1.58;;;;;;;13.96;43.80;100050.13;4863067;29;20104;-77
2021/04/10 12:08:33;;;;;;;3.13;1.40;;;;;;;13.90;44.56;100040.28;4847484;29;20026;-78
2021/04/10 12:11:01;;;;;;;2.45;1.83;;;;;;;14.10;44.66;100045.47;4858381;29;20070;-76
2021/04/10 12:13:31;;;;;;;3.13;1.63;;;;;;;14.19;43.83;100042.06;4858794;29;20030;-77
2021/04/10 12:16:08;;;;;;;;;;;;;;;;;;;;;